KMDH Weather | Aviation | SIU

Home
Southern Illinois University

CONTACT

SIU.EDU

Aviation - Weather

College of Applied Sciences and Arts

KMDH Weather

NOTICE: Although all weather products are taken from the National Weather Service, this data should be used only as a supplement to a formal weather briefing.

Last Updated: Wednesday, December 19th, 2018, 3:24 am
Information on this page is updated every 5 minutes.


METARS

KMDH 190852Z AUTO 13004KT 10SM CLR 02/M01 A3001 RMK AO2 SLP165 T00221011 58012

KMDH 190752Z AUTO 17004KT 10SM CLR M01/M02 A3003 RMK AO2 SLP172 T10061017

KMDH 190652Z AUTO 00000KT 10SM CLR M01/M02 A3004 RMK AO2 SLP175 T10061017

KMWA 190915Z AUTO 16004KT 10SM CLR 03/M01 A3002 RMK AO2 T00321010

KMWA 190855Z AUTO 17004KT 10SM CLR 03/M01 A3002 RMK AO2 T00291009

KMWA 190835Z AUTO 19003KT 10SM CLR 02/M01 A3003 RMK AO2 T00151007

KMWA 190815Z AUTO 17004KT 10SM CLR 02/M01 A3004 RMK AO2 T00181006

KMWA 190755Z AUTO 16003KT 10SM CLR 02/M01 A3004 RMK AO2 T00201007

KMWA 190735Z AUTO 16005KT 10SM CLR 02/M01 A3004 RMK AO2 T00151008

KMWA 190715Z AUTO 15003KT 10SM CLR 02/M01 A3004 RMK AO2 T00151011

KMWA 190655Z AUTO 15003KT 10SM CLR 00/M02 A3005 RMK AO2 T00021016

KMWA 190635Z AUTO 16003KT 10SM CLR 02/M01 A3006 RMK AO2 T00161011

KCGI 190853Z AUTO 00000KT 10SM CLR 03/M02 A3001 RMK AO2 SLP164 T00281022 58012

KCGI 190753Z AUTO 11003KT 10SM CLR 02/M02 A3004 RMK AO2 SLP173 T00171017

KCGI 190653Z AUTO 05003KT 10SM CLR 01/M01 A3004 RMK AO2 SLP175 T00111011

KSAR 190855Z AUTO 15003KT 10SM CLR 02/00 A3001 RMK AO2 T00210000

KSAR 190835Z AUTO 00000KT 10SM CLR 02/00 A3002 RMK AO2 T00200003

KSAR 190815Z AUTO 00000KT 10SM CLR 02/00 A3002 RMK AO2 T00210001

KSAR 190755Z AUTO 14003KT 10SM CLR 03/00 A3003 RMK AO2 T00250000

KSAR 190735Z AUTO 15005KT 10SM CLR 02/00 A3003 RMK AO2 T00210000

KSAR 190715Z AUTO 15004KT 10SM CLR 02/00 A3002 RMK AO2 T00200000

KSAR 190655Z AUTO 14005KT 10SM CLR 02/00 A3003 RMK AO2 T00170003

KSAR 190635Z AUTO 14004KT 10SM CLR 02/00 A3004 RMK AO2 T00170001

KFAM 190856Z AUTO 20003KT 10SM CLR 04/M01 A2999 RMK AO2 SLP155 T00391006 58015

KFAM 190756Z AUTO 00000KT 10SM FEW120 04/M01 A3000 RMK AO2 SLP161 T00441011

KFAM 190656Z AUTO 20004KT 10SM CLR 04/M01 A3002 RMK AO2 SLP167 T00391006

KMVN 190856Z AUTO 00000KT 8SM CLR M01/M02 A3002 RMK AO2 SLP168 T10061017 56012

KMVN 190756Z AUTO 00000KT 10SM CLR M01/M01 A3004 RMK AO2 SLP174 T10061011 FZRANO

KMVN 190656Z AUTO 00000KT 10SM FEW110 M01/M01 A3004 RMK AO2 SLP175 T10061006

KHSB 190915Z AUTO 00000KT 7SM CLR 00/00 A3003 RMK AO2 T10011001

KHSB 190855Z AUTO 00000KT 7SM CLR 00/00 A3003 RMK AO2 T10011001

KHSB 190835Z AUTO 00000KT 7SM CLR 00/00 A3004 RMK AO2 T10051005

KCIR 190915Z AUTO 00000KT 10SM CLR 00/00 A3002 RMK AO2 T10021005

KCIR 190855Z AUTO 00000KT 10SM CLR 00/M01 A3002 RMK AO2 T10031007

KCIR 190835Z AUTO 00000KT 10SM CLR 00/00 A3003 RMK AO2 T00001005

KPAH 190853Z AUTO 00000KT 10SM CLR M01/M03 A3002 RMK AO2 SLP166 T10061028 58011

KFAM 190856Z AUTO 20003KT 10SM CLR 04/M01 A2999 RMK AO2 SLP155 T00391006 58015

KBLV 190856Z AUTO 00000KT 10SM SCT150 OVC190 02/M01 A2998 RMK AO2 SLP158

KVIH 190853Z AUTO 19010KT 10SM CLR 04/M01 A2995 RMK AO2 SLP143 T00441006 56009

KENL 190915Z AUTO 00000KT 10SM CLR 04/01 A3000 RMK AO2 T00350007

KENL 190855Z AUTO 00000KT 10SM CLR 04/01 A3000 RMK AO2 T00350007

KENL 190835Z AUTO 00000KT 10SM CLR 04/01 A3001 RMK AO2 T00350007

KMTO 190853Z AUTO 17007KT 10SM CLR 02/M02 A3000 RMK AO2 SLP162 T00171017 56011

KFWC 190915Z AUTO 00000KT 10SM CLR 01/00 A3002 RMK AO1 T00141005

KFWC 190855Z AUTO 00000KT 10SM CLR 02/00 A3003 RMK AO1 T00151005

KFWC 190835Z AUTO 00000KT 10SM CLR 01/00 A3004 RMK AO1 T00061005

KCUL 190913Z AUTO 13003KT 7SM CLR 00/M01 A3003 RMK AO2

KCUL 190853Z AUTO 00000KT 5SM BR CLR M01/M01 A3004 RMK AO2

KCUL 190833Z AUTO 16004KT 7SM CLR M01/M02 A3004 RMK AO2

KEVV 190854Z AUTO 00000KT 10SM CLR 00/M01 A3005 RMK AO2 SLP180 T00001011 56013 $

KCEY 190915Z AUTO 13004KT 10SM CLR 01/00 A3003 RMK AO1

KCEY 190855Z AUTO 13003KT 10SM CLR 01/M01 A3004 RMK AO1

KCEY 190835Z AUTO 12003KT 10SM CLR 02/M01 A3004 RMK AO1

KHOP 190856Z AUTO 00000KT 10SM CLR 00/M02 A3005 RMK AO2 SLP181 T10011022 55006

KARG 190856Z AUTO 00000KT 10SM SCT030 03/02 A3001 RMK AO2 SLP166 T00280017 56014

KJBR 190853Z AUTO 00000KT 10SM CLR 02/01 A3002 RMK AO2 SLP164 T00220006 56013

KUNO 190853Z AUTO 16005KT 10SM CLR 04/00 A2998 RMK AO2 SLP152 T00440000 56011

KALN 190915Z AUTO 07003KT 10SM CLR 01/00 A2998 RMK AO2 T00080000

KALN 190855Z AUTO 00000KT 10SM CLR 01/00 A2999 RMK AO2 T00080001

KALN 190835Z AUTO 11003KT 10SM CLR 01/00 A3000 RMK AO2 T00110000

KALN 190915Z AUTO 07003KT 10SM CLR 01/00 A2998 RMK AO2 T00080000

KALN 190855Z AUTO 00000KT 10SM CLR 01/00 A2999 RMK AO2 T00080001

KALN 190835Z AUTO 11003KT 10SM CLR 01/00 A3000 RMK AO2 T00110000

KCOU 190854Z AUTO 17008KT 10SM CLR 05/00 A2992 RMK AO2 SLP134 T00500000 56008

KAJG 190855Z AUTO 00000KT 10SM CLR 00/M01 A3004 RMK AO2 T00011010

KAJG 190835Z AUTO 00000KT 10SM CLR 00/M01 A3004 RMK AO2 T00001011

KM30 190915Z AUTO 00000KT 10SM CLR M01/M01 A3003 RMK AO2 T10081015

KM30 190855Z AUTO 00000KT 10SM CLR M01/M01 A3003 RMK AO2 T10061015

KM30 190835Z AUTO 00000KT 10SM CLR 00/M01 A3005 RMK AO2 T10041012

KDEC 190854Z AUTO 19010KT 10SM CLR A2999 RMK AO2 SLPNO 56013 $

KIJX 190855Z AUTO 18009KT 10SM CLR 04/M01 A2995 RMK AO2 T00361010

KIJX 190835Z AUTO 18009KT 10SM CLR 04/M01 A2996 RMK AO2 T00361010


TAFS

KEVV 190520Z 1906/2006 VRB03KT P6SM BKN250

        FM191600 18006KT P6SM BKN250

        FM200200 17005KT P6SM BKN110


Winds Aloft



Pilot Reports

No pilot reports found for area.



Area Forecast



Significant Weather

WAUS43 KKCI 190245 CHIT WA 190245 AIRMET TANGO FOR TURB AND LLWS VALID UNTIL 190900 AIRMET TURB...KS MO OK TX AR FROM 40SSW STL TO 20SSE TXK TO 40WNW LFK TO 40W BRO TO 90W BRO TO DLF TO 90S MRF TO INK TO 60WSW ICT TO 40SSW STL MOD TURB BTN FL200 AND FL380. CONDS CONTG BYD 09Z THRU 15Z. OTLK VALID 0900-1500Z AREA 1...TURB ND SD NE KS OK TX BOUNDED BY 100WSW YWG-30WSW SLN-DLF-90S MRF-ELP-INK-30ESE TBE- 50W LBL-GLD-BFF-70SW RAP-50NNW ISN-100WSW YWG MOD TURB BTN FL180 AND FL390. CONDS CONTG THRU 15Z. AREA 2...TURB KS MO OK TX AR LA AND CSTL WTRS BOUNDED BY UIN-50WNW FAM-40W ARG-40ENE ELD-110S LCH-120SSW LCH- 80E BRO-90W BRO-DLF-60WSW ICT-40ESE ICT-UIN MOD TURB BTN FL200 AND FL380. CONDS CONTG THRU 15Z. AREA 3...TURB MO IL IN KY AR TN LA MS AL AND CSTL WTRS BOUNDED BY CVG-HNN-HMV-GQO-50SW PZD-40W CEW-130ESE LEV-100S LCH- 40E ELD-50SW ARG-30SSW FAM-CVG MOD TURB BTN 150 AND FL340. CONDS CONTG THRU 15Z.
WAUS43 KKCI 190245 CHIT WA 190245 AIRMET TANGO FOR TURB AND LLWS VALID UNTIL 190900 AIRMET TURB...MO IL IN KY FROM FWA TO CVG TO HNN TO 40W BKW TO 60SE CVG TO 40S PXV TO 30SW STL TO 40SE BDF TO 40ENE BVT TO FWA MOD TURB BTN FL230 AND FL380. CONDS ENDG BY 09Z. OTLK VALID 0900-1500Z AREA 1...TURB ND SD NE KS OK TX BOUNDED BY 100WSW YWG-30WSW SLN-DLF-90S MRF-ELP-INK-30ESE TBE- 50W LBL-GLD-BFF-70SW RAP-50NNW ISN-100WSW YWG MOD TURB BTN FL180 AND FL390. CONDS CONTG THRU 15Z. AREA 2...TURB KS MO OK TX AR LA AND CSTL WTRS BOUNDED BY UIN-50WNW FAM-40W ARG-40ENE ELD-110S LCH-120SSW LCH- 80E BRO-90W BRO-DLF-60WSW ICT-40ESE ICT-UIN MOD TURB BTN FL200 AND FL380. CONDS CONTG THRU 15Z. AREA 3...TURB MO IL IN KY AR TN LA MS AL AND CSTL WTRS BOUNDED BY CVG-HNN-HMV-GQO-50SW PZD-40W CEW-130ESE LEV-100S LCH- 40E ELD-50SW ARG-30SSW FAM-CVG MOD TURB BTN 150 AND FL340. CONDS CONTG THRU 15Z.
WAUS46 KKCI 190245 SFOT WA 190245 AIRMET TANGO FOR TURB AND LLWS VALID UNTIL 190900 AIRMET TURB...WA OR CA ID MT WY NV UT CO AZ NM AND CSTL WTRS FROM 50WSW YXC TO 50NNW ISN TO 70SW RAP TO BFF TO GLD TO 50W LBL TO 30ESE TBE TO INK TO ELP TO 60SE TUS TO 160WNW FOT TO 140W TOU TO 50WSW YXC MOD TURB BTN FL180 AND FL390. CONDS CONTG BYD 09Z THRU 15Z.
WAUS46 KKCI 190245 SFOT WA 190245 AIRMET TANGO FOR TURB AND LLWS VALID UNTIL 190900 AIRMET TURB...WA OR CA AND CSTL WTRS FROM 50WSW YXC TO 50SE REO TO 40SE LKV TO 40SSW FMG TO EED TO 20SE BZA TO 70ESE CZQ TO 150WNW FOT TO 140W TOU TO 50WSW YXC MOD TURB BLW FL180. CONDS CONTG BYD 09Z THRU 15Z. LLWS POTENTIAL...WA OR CA ID MT WY NV UT CO BOUNDED BY 60ESE YXC-50NNW ISN-70SW RAP-30E DDY-LAR-50E MTU- 40NNE ELY-50NW FMG-50S LKV-50S PDT-40SE YKM-50NNW EPH-60ESE YXC LLWS EXP. CONDS CONTG BYD 09Z THRU 15Z.
WAUS44 KKCI 190245 DFWT WA 190245 AIRMET TANGO FOR TURB VALID UNTIL 190900 AIRMET TURB...OK TX AR KS MO FROM 40SSW STL TO 20SSE TXK TO 40WNW LFK TO 40W BRO TO 90W BRO TO DLF TO 90S MRF TO INK TO 60WSW ICT TO 40SSW STL MOD TURB BTN FL200 AND FL380. CONDS CONTG BYD 09Z THRU 15Z. OTLK VALID 0900-1500Z AREA 1...TURB OK TX ND SD NE KS BOUNDED BY 100WSW YWG-30WSW SLN-DLF-90S MRF-ELP-INK-30ESE TBE- 50W LBL-GLD-BFF-70SW RAP-50NNW ISN-100WSW YWG MOD TURB BTN FL180 AND FL390. CONDS CONTG THRU 15Z. AREA 2...TURB OK TX AR LA KS MO AND CSTL WTRS BOUNDED BY UIN-50WNW FAM-40W ARG-40ENE ELD-110S LCH-120SSW LCH- 80E BRO-90W BRO-DLF-60WSW ICT-40ESE ICT-UIN MOD TURB BTN FL200 AND FL380. CONDS CONTG THRU 15Z. AREA 3...TURB AR TN LA MS AL MO IL IN KY AND CSTL WTRS BOUNDED BY CVG-HNN-HMV-GQO-50SW PZD-40W CEW-130ESE LEV-100S LCH- 40E ELD-50SW ARG-30SSW FAM-CVG MOD TURB BTN 150 AND FL340. CONDS CONTG THRU 15Z. AREA 4...TURB OK TX BOUNDED BY 50W LBL-60WSW LBB-30ESE TBE-50W LBL MOD TURB BLW FL180. CONDS DVLPG AFT 12Z. CONDS CONTG THRU 15Z.
WAUS43 KKCI 190245 CHIZ WA 190245 AIRMET ZULU FOR ICE AND FRZLVL VALID UNTIL 190900 AIRMET ICE...NE KS IA MO IL FROM 40WNW MCW TO 50SW ODI TO 20NNE BDF TO 30NE AXC TO 50ENE FAM TO 20E MCI TO 20ENE ICT TO 80S OBH TO 40WNW MCW MOD ICE BTN 090 AND FL190. CONDS CONTG BYD 09Z THRU 15Z. OTLK VALID 0900-1500Z AREA 1...ICE ND SD NE KS MN BOUNDED BY 50NE INL-20SSE HLC-60SE LAA-GLD-BFF-70SW RAP-60ESE MLS-30NNE DIK-70NW MOT-50NE INL MOD ICE BTN 070 AND FL180. CONDS CONTG THRU 15Z. AREA 2...ICE NE MN IA MO WI LM LS MI IL IN BOUNDED BY 50E DLH-70WNW SAW-60W SSM-20SE GRB-30WSW PMM-40SSW BVT-50SSW AXC-40NE UIN-40S IOW-30NNW IRK-40ENE MCI-20N PWE-40W FOD-20S MSP-50E DLH MOD ICE BTN 090 AND FL190. CONDS CONTG THRU 15Z. AREA 3...ICE ND BOUNDED BY 70NW MOT-40E ISN-30SW ISN-50NNW ISN-70NW MOT MOD ICE BTN FRZLVL AND 150. FRZLVL SFC-050. CONDS DVLPG 12-15Z. CONDS CONTG THRU 15Z. FRZLVL...RANGING FROM SFC-105 ACRS AREA MULT FRZLVL 030-070 BOUNDED BY 50SSW GFK-50S MSP-40WNW OVR- 30SW OBH-30E ANW-30NNE LBF-50SSE PIR-50SSW GFK MULT FRZLVL BLW 080 BOUNDED BY 80WSW YWG-30N INL-YQT-70NW SSM- 50WNW YVV-30E ECK-50SW DXO-30SSE ORD-50SE DBQ-20W DBQ- 60ESE EAU-30ESE MSP-50S MSP-50SE FAR-50SSW GFK-80WSW YWG SFC ALG 60SE LAA-60S GLD-30WNW ODI-40SE ODI-30E IOW-50SSW BDF- 50W HNN SFC ALG 20WSW ISN-40ESE DIK-30NW DPR-60NNW RAP-20NNE BFF-BFF SFC ALG SSM-30N ASP-20WSW PMM-30S BAE-50SW GRB-80S YQT-50SE YQT 040 ALG 30NW ISN-30S BIS-80SE RAP-20ENE MCK-30SE ODI-40ESE IOW-CVG 080 ALG 30E LBL-50E GCK-20SSW DSM-20SW STL-50ENE FAM-40S HNN
WAUS45 KKCI 190434 AAA SLCT WA 190434 AMD AIRMET TANGO UPDT 1 FOR TURB STG WNDS AND LLWS VALID UNTIL 190900 AIRMET TURB...ID MT WY NV UT CO AZ NM FROM 50WSW YXC TO 50NNW ISN TO 70SW RAP TO BFF TO 40ENE AKO TO 70E ELP TO ELP TO 50S TUS TO 20SE BZA TO EED TO 40SSW FMG TO 40SE LKV TO 50SE REO TO 50WSW YXC MOD TURB BLW FL180. CONDS CONTG BYD 09Z THRU 15Z. OTLK VALID 0900-1500Z...STG SFC WNDS WY CO BOUNDED BY 70E DDY-30N DEN-60ESE DBL-60ENE OCS-70E DDY SUSTAINED SURFACE WINDS GTR THAN 30KT EXP. CONDS DVLPG AFT 09Z. CONDS CONTG THRU 15Z.
WSUS32 KKCI 190755 SIGC CONVECTIVE SIGMET...NONE OUTLOOK VALID 190955-191355 FROM 50WSW TXK-30SE ELD-LCH-50SSE IAH-40NE PSX-30SSE CWK-30E TTT-50WSW TXK WST ISSUANCES POSS. REFER TO MOST RECENT ACUS01 KWNS FROM STORM PREDICTION CENTER FOR SYNOPSIS AND METEOROLOGICAL DETAILS.
WAUS44 KKCI 190845 DFWT WA 190845 AIRMET TANGO UPDT 1 FOR TURB VALID UNTIL 191500 AIRMET TURB...OK TX AR TN LA MS AL MO IL IN KY AND CSTL WTRS FROM 40WSW ROD TO CVG TO HNN TO HMV TO GQO TO 50SW PZD TO 40W CEW TO 130ESE LEV TO 120SSW LCH TO 80E BRO TO 90W BRO TO 50NW LRD TO 40ESE SJT TO 20SE OSW TO 20ENE AXC TO 40WSW ROD MOD TURB BTN FL200 AND FL380. CONDS CONTG BYD 15Z THRU 21Z. OTLK VALID 1500-2100Z AREA 1...TURB OK TX AR TN LA MS AL KS MO IL IN KY AND CSTL WTRS BOUNDED BY 50SW DXO-FWA-CVG-HNN-HMV-GQO-50SW PZD-40W CEW-130ESE LEV-120SSW LCH-80E BRO-90W BRO-30NNE ADM-20NW BUM-30SW GIJ-50SW DXO MOD TURB BTN FL200 AND FL380. CONDS CONTG THRU 21Z. AREA 2...TURB OK TX ND SD NE KS MN IA BOUNDED BY 70SW YWG-40SSE FAR-40NNE OVR-30W OKC-INK-30ESE TBE- 50W LBL-GLD-BFF-70SW RAP-50NNW ISN-70SW YWG MOD TURB BLW 160. CONDS CONTG THRU 21Z. AREA 3...TURB TX BOUNDED BY INK-20E JCT-20WNW LRD-DLF-90S MRF-ELP-INK MOD TURB BLW FL180. CONDS DVLPG 15-18Z. CONDS CONTG THRU 21Z.
WAUS43 KKCI 190845 CHIT WA 190845 AIRMET TANGO UPDT 1 FOR TURB STG WNDS AND LLWS VALID UNTIL 191500 AIRMET TURB...MO IL IN KY OK TX AR TN LA MS AL AND CSTL WTRS FROM 40WSW ROD TO CVG TO HNN TO HMV TO GQO TO 50SW PZD TO 40W CEW TO 130ESE LEV TO 120SSW LCH TO 80E BRO TO 90W BRO TO 50NW LRD TO 40ESE SJT TO 20SE OSW TO 20ENE AXC TO 40WSW ROD MOD TURB BTN FL200 AND FL380. CONDS CONTG BYD 15Z THRU 21Z. OTLK VALID 1500-2100Z AREA 1...TURB KS MO IL IN KY OK TX AR TN LA MS AL AND CSTL WTRS BOUNDED BY 50SW DXO-FWA-CVG-HNN-HMV-GQO-50SW PZD-40W CEW-130ESE LEV-120SSW LCH-80E BRO-90W BRO-30NNE ADM-20NW BUM-30SW GIJ-50SW DXO MOD TURB BTN FL200 AND FL380. CONDS CONTG THRU 21Z. AREA 2...TURB ND SD NE KS MN IA OK TX BOUNDED BY 70SW YWG-40SSE FAR-40NNE OVR-30W OKC-INK-30ESE TBE- 50W LBL-GLD-BFF-70SW RAP-50NNW ISN-70SW YWG MOD TURB BLW 160. CONDS CONTG THRU 21Z. AREA 3...STG SFC WNDS SD BOUNDED BY 80W DPR-30NE RAP-30SSW RAP-80W DPR SUSTAINED SURFACE WINDS GTR THAN 30KT EXP. CONDS DVLPG AFT 21Z. CONDS ENDG BY 21Z.